Time;durP1;ratioP1;P1;durP2;ratioP2;P2;SDS_P1;SDS_P2;PMS_P1;PMS_P2;Temp;Humidity;BMP_temperature;BMP_pressure;BME280_temperature;BME280_humidity;BME280_pressure;Samples;Min_cycle;Max_cycle;Signal;HPM_P1;HPM_P2
2023/05/16 00:01:55;;;;;;;17.92;12.07;;;11.70;27.30;;;;;;5070166;28;20068;-67
2023/05/16 00:04:22;;;;;;;15.18;11.68;;;11.70;29.70;;;;;;5054050;28;20061;-67
2023/05/16 00:06:48;;;;;;;17.88;12.25;;;11.70;25.30;;;;;;5053959;28;20025;-67
2023/05/16 00:09:13;;;;;;;14.30;10.63;;;11.70;27.10;;;;;;5054322;28;20039;-67
2023/05/16 00:11:39;;;;;;;18.08;12.32;;;11.60;28.70;;;;;;5054161;28;20029;-67
2023/05/16 00:14:04;;;;;;;18.17;12.38;;;11.70;33.80;;;;;;5054252;28;20490;-67
2023/05/16 00:16:30;;;;;;;20.77;13.38;;;11.70;29.60;;;;;;5054429;28;20021;-67
2023/05/16 00:18:58;;;;;;;19.58;12.43;;;11.60;34.60;;;;;;5054437;28;20059;-67
2023/05/16 00:21:24;;;;;;;20.10;12.85;;;11.60;46.20;;;;;;5053334;28;20467;-67
2023/05/16 00:23:51;;;;;;;20.52;13.35;;;11.60;57.00;;;;;;5054329;28;20067;-68
2023/05/16 00:26:17;;;;;;;19.35;12.90;;;11.60;77.10;;;;;;5054208;28;20060;-67
2023/05/16 00:28:43;;;;;;;21.42;14.35;;;11.60;90.30;;;;;;5054258;28;20483;-67
2023/05/16 00:31:08;;;;;;;23.92;15.57;;;11.40;99.90;;;;;;5054149;28;20043;-67
2023/05/16 00:33:34;;;;;;;24.08;15.80;;;11.30;99.90;;;;;;5053906;28;20028;-67
2023/05/16 00:35:59;;;;;;;21.27;14.63;;;11.30;99.90;;;;;;5054169;28;20032;-67
2023/05/16 00:38:25;;;;;;;24.48;17.05;;;11.20;99.90;;;;;;5053598;28;20017;-67
2023/05/16 00:40:50;;;;;;;28.23;18.20;;;11.10;99.90;;;;;;5053517;28;20032;-67
2023/05/16 00:43:16;;;;;;;28.42;17.58;;;11.10;99.90;;;;;;5053711;28;20068;-67
2023/05/16 00:45:41;;;;;;;26.85;17.67;;;10.90;99.90;;;;;;5053498;28;20123;-67
2023/05/16 00:48:08;;;;;;;31.85;17.60;;;10.90;99.90;;;;;;5053874;28;20419;-67
2023/05/16 00:50:36;;;;;;;29.05;18.40;;;10.90;99.90;;;;;;5053296;28;20056;-67
2023/05/16 00:53:01;;;;;;;30.23;19.05;;;10.90;99.90;;;;;;5053630;28;20022;-67
2023/05/16 00:55:27;;;;;;;29.85;19.75;;;10.90;99.90;;;;;;5054030;28;20037;-67
2023/05/16 00:57:52;;;;;;;30.63;19.42;;;10.90;99.90;;;;;;5053414;28;20029;-67
2023/05/16 01:00:18;;;;;;;28.05;18.38;;;10.90;99.90;;;;;;5054026;28;20075;-67
2023/05/16 01:02:45;;;;;;;30.17;18.95;;;10.80;99.90;;;;;;5053586;28;20025;-67
2023/05/16 01:05:10;;;;;;;29.02;18.83;;;10.80;99.90;;;;;;5053847;28;20382;-67
2023/05/16 01:07:36;;;;;;;31.35;19.00;;;10.80;99.90;;;;;;5053557;28;20037;-67
2023/05/16 01:10:03;;;;;;;25.92;17.25;;;10.90;99.90;;;;;;5053250;28;20032;-67
2023/05/16 01:12:42;;;;;;;27.38;17.65;;;10.90;99.90;;;;;;5053678;28;20033;-67
2023/05/16 01:15:18;;;;;;;27.67;16.70;;;10.90;99.90;;;;;;5053095;28;20386;-67
2023/05/16 01:18:08;;;;;;;24.15;15.93;;;10.90;99.90;;;;;;5053190;28;20078;-67
2023/05/16 01:20:47;;;;;;;25.50;17.02;;;10.90;99.90;;;;;;5053808;28;20028;-67
2023/05/16 01:23:52;;;;;;;26.10;16.45;;;10.90;99.90;;;;;;5053436;28;20032;-67
2023/05/16 01:26:21;;;;;;;22.58;14.70;;;10.90;99.90;;;;;;5052856;28;20018;-67
2023/05/16 01:28:48;;;;;;;23.05;15.98;;;10.80;99.90;;;;;;5052831;28;20590;-67
2023/05/16 01:31:15;;;;;;;26.98;16.52;;;10.90;99.90;;;;;;5053521;28;20032;-67
2023/05/16 01:33:40;;;;;;;25.80;15.82;;;10.90;99.90;;;;;;5055320;28;20029;-67
2023/05/16 01:36:32;;;;;;;26.20;14.60;;;10.90;99.90;;;;;;5057475;28;20429;-67
2023/05/16 01:39:21;;;;;;;18.83;13.00;;;10.80;99.90;;;;;;5056846;28;20039;-67
2023/05/16 01:42:01;;;;;;;23.33;14.38;;;10.80;99.90;;;;;;5056705;28;20029;-67
2023/05/16 01:45:07;;;;;;;19.42;13.63;;;10.70;99.90;;;;;;5056754;28;20033;-67
2023/05/16 01:47:37;;;;;;;19.08;11.00;;;10.60;99.90;;;;;;5057276;28;20374;-67
2023/05/16 01:50:21;;;;;;;9.60;7.45;;;10.60;99.90;;;;;;5056903;28;20032;-66
2023/05/16 01:52:49;;;;;;;;;;;10.40;99.90;;;;;;5072357;28;20037;-67
2023/05/16 01:55:23;;;;;;;7.05;3.70;;;10.20;99.90;;;;;;5056260;28;19955;-66
2023/05/16 01:57:51;;;;;;;5.60;3.78;;;10.00;99.90;;;;;;5057033;28;20463;-66
2023/05/16 02:00:16;;;;;;;5.22;3.45;;;9.80;99.90;;;;;;5071757;28;20501;-66
2023/05/16 02:02:42;;;;;;;9.68;3.47;;;9.80;99.90;;;;;;5056967;28;20210;-66
2023/05/16 02:05:07;;;;;;;8.43;3.20;;;9.60;99.90;;;;;;5056598;28;20046;-66
2023/05/16 02:07:33;;;;;;;6.18;3.67;;;9.60;99.90;;;;;;5056451;28;20029;-66
2023/05/16 02:09:59;;;;;;;6.38;3.78;;;9.60;99.90;;;;;;5056843;28;20061;-66
2023/05/16 02:12:24;;;;;;;9.13;4.25;;;9.60;99.90;;;;;;5056464;28;20025;-66
2023/05/16 02:14:50;;;;;;;10.70;4.30;;;9.50;99.90;;;;;;5056195;28;20551;-66
2023/05/16 02:17:15;;;;;;;4.90;3.75;;;9.60;99.90;;;;;;5056719;28;20056;-67
2023/05/16 02:19:41;;;;;;;10.00;4.20;;;9.60;99.90;;;;;;5056495;28;20025;-67
2023/05/16 02:22:06;;;;;;;9.00;4.10;;;9.60;99.90;;;;;;5056493;28;20036;-66
2023/05/16 02:24:32;;;;;;;9.38;3.88;;;9.50;99.90;;;;;;5056506;28;20421;-67
2023/05/16 02:26:58;;;;;;;6.65;3.88;;;9.50;99.90;;;;;;5056495;28;20470;-67
2023/05/16 02:29:23;;;;;;;6.85;3.90;;;9.50;99.90;;;;;;5055823;28;20057;-67
2023/05/16 02:31:49;;;;;;;11.57;4.93;;;9.40;99.90;;;;;;5055907;28;20070;-67
2023/05/16 02:34:15;;;;;;;11.32;5.10;;;9.40;99.90;;;;;;5056419;28;20483;-67
2023/05/16 02:36:41;;;;;;;11.93;5.78;;;9.40;99.90;;;;;;5070948;28;20021;-67
2023/05/16 02:39:08;;;;;;;13.05;6.35;;;9.40;99.90;;;;;;5056454;28;20075;-67
2023/05/16 02:41:34;;;;;;;17.23;7.43;;;9.40;99.90;;;;;;5056285;28;20429;-67
2023/05/16 02:44:00;;;;;;;17.85;7.10;;;9.40;99.90;;;;;;5055529;28;20036;-67
2023/05/16 02:46:29;;;;;;;18.90;7.97;;;9.40;99.90;;;;;;5056377;28;20036;-67
2023/05/16 02:48:55;;;;;;;18.67;8.95;;;9.50;99.90;;;;;;5056117;28;20032;-67
2023/05/16 02:51:22;;;;;;;20.05;8.95;;;9.50;99.90;;;;;;5055125;28;20045;-67
2023/05/16 02:53:48;;;;;;;21.48;10.07;;;9.50;99.90;;;;;;5055732;28;20036;-67
2023/05/16 02:56:14;;;;;;;26.80;10.05;;;9.50;99.90;;;;;;5055679;28;20031;-67
2023/05/16 02:58:40;;;;;;;23.65;9.80;;;9.40;99.90;;;;;;5055366;28;20025;-67
2023/05/16 03:01:06;;;;;;;20.75;9.80;;;9.40;99.90;;;;;;5070751;28;20079;-66
2023/05/16 03:03:34;;;;;;;29.73;11.93;;;9.40;99.90;;;;;;5055560;28;20414;-66
2023/05/16 03:05:59;;;;;;;24.73;10.77;;;9.40;99.90;;;;;;5055235;28;20043;-66
2023/05/16 03:08:25;;;;;;;26.60;10.18;;;9.30;99.90;;;;;;5055309;28;20364;-66
2023/05/16 03:10:51;;;;;;;24.95;9.85;;;9.30;99.90;;;;;;5054922;28;20039;-66
2023/05/16 03:13:17;;;;;;;28.70;10.45;;;9.30;99.90;;;;;;5055654;28;20029;-66
2023/05/16 03:15:42;;;;;;;32.78;11.50;;;9.30;99.90;;;;;;5055604;28;20391;-66
2023/05/16 03:18:08;;;;;;;28.50;10.63;;;9.30;99.90;;;;;;5055271;28;20031;-66
2023/05/16 03:20:33;;;;;;;23.00;9.90;;;9.40;99.90;;;;;;5055175;28;20028;-66
2023/05/16 03:22:59;;;;;;;35.70;10.60;;;9.40;99.90;;;;;;5055448;28;20025;-66
2023/05/16 03:25:25;;;;;;;21.58;9.43;;;9.30;99.90;;;;;;5055352;28;20032;-66
2023/05/16 03:27:50;;;;;;;31.48;9.35;;;9.30;99.90;;;;;;5055084;28;20029;-66
2023/05/16 03:30:16;;;;;;;21.33;9.63;;;9.20;99.90;;;;;;5054770;28;20025;-66
2023/05/16 03:32:44;;;;;;;26.27;9.27;;;9.30;99.90;;;;;;5054605;28;20057;-66
2023/05/16 03:35:10;;;;;;;29.85;8.95;;;9.20;99.90;;;;;;5054927;28;20033;-66
2023/05/16 03:37:36;;;;;;;33.80;9.15;;;9.20;99.90;;;;;;5054869;28;20488;-66
2023/05/16 03:40:04;;;;;;;33.05;9.70;;;9.20;99.90;;;;;;5054531;28;20033;-66
2023/05/16 03:42:31;;;;;;;28.27;8.50;;;9.20;99.90;;;;;;5054791;28;20033;-66
2023/05/16 03:44:56;;;;;;;34.53;9.15;;;9.20;99.90;;;;;;5054642;28;20071;-66
2023/05/16 03:47:22;;;;;;;25.70;8.30;;;9.20;99.90;;;;;;5054657;28;20035;-66
2023/05/16 03:49:47;;;;;;;27.77;8.45;;;9.20;99.90;;;;;;5055020;28;20383;-66
2023/05/16 03:52:13;;;;;;;28.67;8.57;;;9.20;99.90;;;;;;5053782;28;20136;-66
2023/05/16 03:54:38;;;;;;;25.45;7.70;;;9.20;99.90;;;;;;5054736;28;20032;-66
2023/05/16 03:57:04;;;;;;;28.73;8.27;;;9.10;99.90;;;;;;5053998;28;20017;-66
2023/05/16 03:59:30;;;;;;;29.50;8.57;;;9.10;99.90;;;;;;5054731;28;20115;-66
2023/05/16 04:01:56;;;;;;;31.83;9.18;;;9.00;99.90;;;;;;5054711;28;20112;-66
2023/05/16 04:04:21;;;;;;;25.08;7.43;;;9.00;99.90;;;;;;5054078;28;20029;-66
2023/05/16 04:06:47;;;;;;;32.58;8.10;;;8.90;99.90;;;;;;5054630;28;20568;-66
2023/05/16 04:09:12;;;;;;;26.20;6.72;;;8.90;99.90;;;;;;5054117;28;20025;-66
2023/05/16 04:11:38;;;;;;;27.55;7.22;;;8.80;99.90;;;;;;5054238;28;20428;-66
2023/05/16 04:14:04;;;;;;;23.30;6.90;;;8.80;99.90;;;;;;5054243;28;20028;-66
2023/05/16 04:16:29;;;;;;;30.33;6.28;;;8.70;99.90;;;;;;5054182;28;20040;-66
2023/05/16 04:18:55;;;;;;;23.73;6.78;;;8.60;99.90;;;;;;5053937;28;20032;-66
2023/05/16 04:21:21;;;;;;;30.08;6.45;;;8.60;99.90;;;;;;5053844;28;20054;-66
2023/05/16 04:23:47;;;;;;;26.50;6.78;;;8.60;99.90;;;;;;5053800;28;20036;-66
2023/05/16 04:26:13;;;;;;;30.85;6.57;;;8.60;99.90;;;;;;5054536;28;20033;-66
2023/05/16 04:28:40;;;;;;;25.50;6.05;;;8.60;99.90;;;;;;5054443;28;20115;-66
2023/05/16 04:31:06;;;;;;;28.67;6.30;;;8.50;99.90;;;;;;5053790;28;20053;-66
2023/05/16 04:33:32;;;;;;;30.58;6.65;;;8.50;99.90;;;;;;5053968;28;20075;-66
2023/05/16 04:35:59;;;;;;;28.77;5.68;;;8.50;99.90;;;;;;5053883;28;20454;-66
2023/05/16 04:38:25;;;;;;;25.77;6.22;;;8.50;99.90;;;;;;5054060;28;20021;-66
2023/05/16 04:40:50;;;;;;;32.83;5.72;;;8.50;99.90;;;;;;5054085;28;20035;-66
2023/05/16 04:43:17;;;;;;;26.77;5.90;;;8.40;99.90;;;;;;5053530;28;20544;-66
2023/05/16 04:45:42;;;;;;;32.60;5.85;;;8.40;99.90;;;;;;5053740;28;20033;-66
2023/05/16 04:48:08;;;;;;;26.98;5.85;;;8.30;99.90;;;;;;5054060;28;20078;-66
2023/05/16 04:50:34;;;;;;;19.73;5.60;;;8.40;99.90;;;;;;5053689;28;20399;-66
2023/05/16 04:52:59;;;;;;;26.60;6.10;;;8.60;99.90;;;;;;5053997;28;20025;-67
2023/05/16 04:55:25;;;;;;;30.17;4.93;;;8.60;99.90;;;;;;5054126;28;20032;-66
2023/05/16 04:57:50;;;;;;;19.70;4.97;;;8.80;99.90;;;;;;5053489;28;20371;-66
2023/05/16 05:00:17;;;;;;;26.65;4.55;;;9.10;99.90;;;;;;5053250;28;20387;-66
2023/05/16 05:02:42;;;;;;;26.63;4.55;;;9.30;99.90;;;;;;5053560;28;20103;-67
2023/05/16 05:05:08;;;;;;;16.88;4.45;;;9.20;99.90;;;;;;5053015;28;20486;-67
2023/05/16 05:07:34;;;;;;;21.58;4.88;;;9.10;99.90;;;;;;5055298;28;20032;-66
2023/05/16 05:10:00;;;;;;;24.02;4.28;;;9.00;99.90;;;;;;5073446;28;20032;-66
2023/05/16 05:12:26;;;;;;;24.92;5.55;;;8.90;99.90;;;;;;5057862;28;20064;-66
2023/05/16 05:14:52;;;;;;;20.38;5.30;;;8.80;99.90;;;;;;5057249;28;20048;-66
2023/05/16 05:17:20;;;;;;;28.63;5.90;;;8.80;99.90;;;;;;5072776;28;20471;-66
2023/05/16 05:19:47;;;;;;;23.17;4.85;;;8.90;99.90;;;;;;5057508;28;20025;-66
2023/05/16 05:22:13;;;;;;;21.40;4.72;;;9.00;99.90;;;;;;5057890;28;20028;-67
2023/05/16 05:24:38;;;;;;;14.30;4.57;;;9.00;99.90;;;;;;5057626;28;20120;-67
2023/05/16 05:27:04;;;;;;;27.83;4.75;;;9.20;99.90;;;;;;5057837;28;20060;-67
2023/05/16 05:29:30;;;;;;;29.15;5.07;;;9.40;99.90;;;;;;5057553;28;20383;-67
2023/05/16 05:31:56;;;;;;;19.70;3.92;;;9.60;99.90;;;;;;5057543;28;20025;-66
2023/05/16 05:34:21;;;;;;;20.40;4.78;;;10.20;99.90;;;;;;5057178;28;20025;-66
2023/05/16 05:36:47;;;;;;;16.35;3.75;;;10.60;72.60;;;;;;5057355;28;20370;-67
2023/05/16 05:39:12;;;;;;;19.30;3.58;;;11.60;31.70;;;;;;5057537;28;20031;-67
2023/05/16 05:41:38;;;;;;;15.55;3.33;;;12.10;1.00;;;;;;5056935;28;20025;-67
2023/05/16 05:44:05;;;;;;;24.63;4.32;;;12.90;1.00;;;;;;5057339;28;20025;-67
2023/05/16 05:46:31;;;;;;;18.90;4.43;;;13.30;1.00;;;;;;5056407;28;20037;-67
2023/05/16 05:48:57;;;;;;;16.73;3.50;;;13.20;1.00;;;;;;5057177;28;20060;-67
2023/05/16 05:51:23;;;;;;;27.60;9.45;;;13.60;1.00;;;;;;5056450;28;20055;-67
2023/05/16 05:53:48;;;;;;;17.98;3.42;;;13.80;99.90;;;;;;5056199;28;20461;-67
2023/05/16 05:56:14;;;;;;;19.00;3.55;;;14.40;99.90;;;;;;5056440;28;20029;-67
2023/05/16 05:58:40;;;;;;;15.32;3.38;;;14.60;99.90;;;;;;5056456;28;20036;-67
2023/05/16 06:01:06;;;;;;;13.20;3.38;;;14.10;99.90;;;;;;5056548;28;20032;-67
2023/05/16 06:03:32;;;;;;;17.42;3.58;;;13.90;99.90;;;;;;5056633;28;20033;-67
2023/05/16 06:05:57;;;;;;;12.70;3.00;;;13.80;1.00;;;;;;5056332;28;20062;-67
2023/05/16 06:08:23;;;;;;;16.10;3.63;;;14.30;1.00;;;;;;5056650;28;20025;-67
2023/05/16 06:10:48;;;;;;;13.90;3.10;;;14.70;99.90;;;;;;5056801;28;20055;-67
2023/05/16 06:13:14;;;;;;;10.88;2.47;;;14.80;1.00;;;;;;5056339;28;20226;-67
2023/05/16 06:15:40;;;;;;;13.60;3.10;;;14.90;1.00;;;;;;5054719;28;20380;-68
2023/05/16 06:18:05;;;;;;;14.05;3.20;;;14.50;99.90;;;;;;5051003;28;20155;-67
2023/05/16 06:20:31;;;;;;;14.77;3.03;;;14.50;4.20;;;;;;5054066;28;20028;-67
2023/05/16 06:22:57;;;;;;;14.00;3.53;;;14.50;99.90;;;;;;5065609;28;20032;-67
2023/05/16 06:25:22;;;;;;;18.45;3.40;;;13.80;1.00;;;;;;5061585;28;20031;-67
2023/05/16 06:27:48;;;;;;;18.27;3.95;;;13.90;99.90;;;;;;5075950;28;20021;-67
2023/05/16 06:30:14;;;;;;;16.92;3.53;;;14.40;99.90;;;;;;5070707;28;20032;-67
2023/05/16 06:32:40;;;;;;;12.80;3.03;;;14.70;99.90;;;;;;5055371;28;20024;-67
2023/05/16 06:35:07;;;;;;;13.35;2.80;;;14.60;27.00;;;;;;5054625;28;20453;-67
2023/05/16 06:37:33;;;;;;;15.13;3.20;;;14.60;99.90;;;;;;5055562;28;20033;-67
2023/05/16 06:39:59;;;;;;;13.20;3.10;;;14.60;1.00;;;;;;5056199;28;20035;-68
2023/05/16 06:42:24;;;;;;;13.68;3.58;;;14.60;99.90;;;;;;5057972;28;20071;-67
2023/05/16 06:44:50;;;;;;;13.40;2.90;;;15.10;1.00;;;;;;5053015;28;20123;-67
2023/05/16 06:47:15;;;;;;;12.23;3.08;;;15.20;99.90;;;;;;5065578;28;20024;-68
2023/05/16 06:49:41;;;;;;;15.35;3.63;;;15.30;99.90;;;;;;5054865;28;20505;-68
2023/05/16 06:52:06;;;;;;;14.00;3.03;;;14.70;99.90;;;;;;5055480;28;20045;-68
2023/05/16 06:54:32;;;;;;;15.45;4.93;;;13.60;1.00;;;;;;5054297;28;20060;-68
2023/05/16 06:56:57;;;;;;;18.85;3.72;;;13.20;1.00;;;;;;5051257;28;20037;-68
2023/05/16 06:59:23;;;;;;;12.52;2.83;;;14.00;99.90;;;;;;5055101;28;20028;-68
2023/05/16 07:01:49;;;;;;;17.30;3.58;;;14.20;37.20;;;;;;5055278;28;20025;-69
2023/05/16 07:04:15;;;;;;;19.40;3.75;;;14.00;42.80;;;;;;5061083;28;20402;-68
2023/05/16 07:06:40;;;;;;;12.77;3.15;;;14.30;99.90;;;;;;5054950;28;20036;-68
2023/05/16 07:09:06;;;;;;;18.15;3.20;;;15.00;99.90;;;;;;5055162;28;20025;-68
2023/05/16 07:11:31;;;;;;;15.02;2.88;;;15.80;99.90;;;;;;5055649;28;20118;-68
2023/05/16 07:13:57;;;;;;;11.82;2.88;;;16.90;51.60;;;;;;5054689;28;20028;-68
2023/05/16 07:16:23;;;;;;;8.95;2.33;;;16.60;30.80;;;;;;5055354;28;20078;-68
2023/05/16 07:18:48;;;;;;;13.80;3.05;;;16.00;1.00;;;;;;5055070;28;20022;-68
2023/05/16 07:21:14;;;;;;;14.90;3.17;;;16.40;7.90;;;;;;5052971;28;20028;-68
2023/05/16 07:23:40;;;;;;;11.95;2.67;;;17.00;1.00;;;;;;5054689;28;20028;-68
2023/05/16 07:26:05;;;;;;;12.63;2.78;;;17.90;99.90;;;;;;5055485;28;20029;-69
2023/05/16 07:28:31;;;;;;;12.90;3.10;;;18.30;98.10;;;;;;5054900;28;20037;-69
2023/05/16 07:30:57;;;;;;;15.88;2.97;;;18.20;96.20;;;;;;5053413;28;20047;-68
2023/05/16 07:33:23;;;;;;;12.60;2.53;;;15.70;99.90;;;;;;5054849;28;20111;-68
2023/05/16 07:35:49;;;;;;;14.35;2.53;;;14.10;99.90;;;;;;5054955;28;20028;-68
2023/05/16 07:38:15;;;;;;;12.38;2.97;;;13.10;99.90;;;;;;5054531;28;20391;-68
2023/05/16 07:40:40;;;;;;;12.45;2.90;;;12.30;44.20;;;;;;5054024;28;20456;-68
2023/05/16 07:43:06;;;;;;;10.23;2.30;;;11.90;1.00;;;;;;5056008;28;20441;-68
2023/05/16 07:45:31;;;;;;;11.88;2.67;;;12.20;99.90;;;;;;5054286;28;20017;-68
2023/05/16 07:47:58;;;;;;;13.30;3.75;;;14.30;1.00;;;;;;5053761;28;20105;-68
2023/05/16 07:50:24;;;;;;;11.85;2.78;;;14.50;99.90;;;;;;5053312;28;20479;-68
2023/05/16 07:52:51;;;;;;;14.98;2.72;;;13.70;99.90;;;;;;5053476;28;20044;-68
2023/05/16 07:55:16;;;;;;;14.57;2.92;;;13.00;99.90;;;;;;5053968;28;20056;-67
2023/05/16 07:57:42;;;;;;;12.73;2.88;;;13.20;1.00;;;;;;5053672;28;20052;-67
2023/05/16 08:00:08;;;;;;;10.50;2.47;;;14.60;99.90;;;;;;5053598;28;20487;-67
2023/05/16 08:02:34;;;;;;;9.57;2.53;;;14.90;99.90;;;;;;5053899;28;20029;-67
2023/05/16 08:05:00;;;;;;;11.48;2.55;;;15.20;67.90;;;;;;5053268;28;20021;-67
2023/05/16 08:07:26;;;;;;;9.82;2.40;;;14.10;99.90;;;;;;5053731;28;20079;-67
2023/05/16 08:09:51;;;;;;;9.02;2.33;;;13.10;99.90;;;;;;5053427;28;20052;-67
2023/05/16 08:12:17;;;;;;;12.55;2.50;;;13.40;1.00;;;;;;5053074;28;20083;-67
2023/05/16 08:14:42;;;;;;;12.95;2.70;;;14.10;99.90;;;;;;5053101;28;20025;-67
2023/05/16 08:17:08;;;;;;;12.13;2.45;;;15.70;95.10;;;;;;5053235;28;20057;-67
2023/05/16 08:19:34;;;;;;;11.55;2.30;;;16.60;99.90;;;;;;5054358;28;20031;-67
2023/05/16 08:22:00;;;;;;;9.15;1.98;;;16.10;99.10;;;;;;5053074;28;20037;-67
2023/05/16 08:24:25;;;;;;;11.43;2.03;;;16.00;99.90;;;;;;5052938;28;20423;-67
2023/05/16 08:26:51;;;;;;;7.97;1.80;;;17.00;1.00;;;;;;5053105;28;20029;-67
2023/05/16 08:29:16;;;;;;;9.48;2.10;;;15.60;1.00;;;;;;5052447;28;20032;-67
2023/05/16 08:31:42;;;;;;;10.38;2.00;;;15.00;99.90;;;;;;5052334;28;20390;-67
2023/05/16 08:34:09;;;;;;;9.07;2.15;;;14.10;99.90;;;;;;5053447;28;20033;-67
2023/05/16 08:36:35;;;;;;;10.18;2.15;;;13.60;99.90;;;;;;5052360;28;20423;-69
2023/05/16 08:39:01;;;;;;;9.43;1.98;;;13.60;1.00;;;;;;5053521;28;20390;-67
2023/05/16 08:41:26;;;;;;;12.02;2.53;;;14.50;99.90;;;;;;5052989;28;20025;-66
2023/05/16 08:43:52;;;;;;;12.95;2.15;;;14.30;1.00;;;;;;5052579;28;20472;-66
2023/05/16 08:46:21;;;;;;;9.10;2.03;;;15.40;99.90;;;;;;5053114;28;20033;-66
2023/05/16 08:48:51;;;;;;;11.13;1.90;;;15.60;12.90;;;;;;5053627;28;20028;-65
2023/05/16 08:51:18;;;;;;;10.55;2.40;;;16.70;29.20;;;;;;5052717;28;20095;-66
2023/05/16 08:53:53;;;;;;;8.18;2.00;;;17.60;99.90;;;;;;5053297;28;20052;-66
2023/05/16 08:56:21;;;;;;;5.70;1.90;;;18.40;99.90;;;;;;5052050;28;20017;-65
2023/05/16 08:58:47;;;;;;;6.32;2.08;;;18.70;99.90;;;;;;5053185;28;20029;-67
2023/05/16 09:01:13;;;;;;;6.80;1.60;;;19.40;30.00;;;;;;5053125;28;20117;-67
2023/05/16 09:03:39;;;;;;;6.35;1.95;;;20.00;20.00;;;;;;5053703;28;20061;-66
2023/05/16 09:06:05;;;;;;;10.13;2.40;;;18.80;5.50;;;;;;5053356;28;20029;-67
2023/05/16 09:08:31;;;;;;;6.35;1.75;;;18.70;1.00;;;;;;5053391;28;20037;-67
2023/05/16 09:10:56;;;;;;;7.07;1.70;;;20.20;1.00;;;;;;5053097;28;20478;-67
2023/05/16 09:13:24;;;;;;;8.43;2.03;;;19.80;1.00;;;;;;5051594;28;20032;-67
2023/05/16 09:16:08;;;;;;;3.83;1.40;;;20.70;1.00;;;;;;5051719;28;20048;-67
2023/05/16 09:18:35;;;;;;;8.10;1.45;;;19.30;1.00;;;;;;5051590;28;20100;-67
2023/05/16 09:21:01;;;;;;;7.50;1.98;;;17.60;1.00;;;;;;5052391;28;20482;-66
2023/05/16 09:23:27;;;;;;;9.40;2.05;;;15.90;21.30;;;;;;5042552;28;20028;-66
2023/05/16 09:25:52;;;;;;;11.15;2.88;;;14.80;99.90;;;;;;5049089;28;20368;-66
2023/05/16 09:28:18;;;;;;;8.20;2.00;;;14.40;99.90;;;;;;5053761;28;20028;-66
2023/05/16 09:30:45;;;;;;;5.20;1.90;;;15.40;99.90;;;;;;5057266;28;20056;-66
2023/05/16 09:33:11;;;;;;;10.07;1.75;;;15.90;99.90;;;;;;5068494;28;20029;-66
2023/05/16 09:35:37;;;;;;;6.72;1.42;;;16.10;99.90;;;;;;5057027;28;20035;-66
2023/05/16 09:38:03;;;;;;;5.63;1.50;;;15.60;99.90;;;;;;5051435;28;20112;-66
2023/05/16 09:40:28;;;;;;;8.88;1.50;;;16.20;68.10;;;;;;5069272;28;20165;-66
2023/05/16 09:43:04;;;;;;;9.90;2.05;;;17.60;38.70;;;;;;5073065;28;20467;-66
2023/05/16 09:45:31;;;;;;;12.60;1.92;;;17.90;45.30;;;;;;5052565;28;20025;-66
2023/05/16 09:48:05;;;;;;;6.10;1.20;;;17.40;30.70;;;;;;5052884;28;20435;-66
2023/05/16 09:50:33;;;;;;;7.65;1.90;;;16.50;71.50;;;;;;5062168;28;20048;-66
2023/05/16 09:52:59;;;;;;;8.60;1.73;;;16.00;99.90;;;;;;5052967;28;20033;-66
2023/05/16 09:55:24;;;;;;;7.10;1.70;;;15.40;99.90;;;;;;5055631;28;20032;-66
2023/05/16 09:57:50;;;;;;;8.50;1.95;;;15.60;99.90;;;;;;5056222;28;20025;-66
2023/05/16 10:00:16;;;;;;;7.78;2.03;;;16.60;99.90;;;;;;5056312;28;20032;-66
2023/05/16 10:02:42;;;;;;;4.80;1.60;;;17.50;99.90;;;;;;5055377;28;20390;-66
2023/05/16 10:05:08;;;;;;;6.20;1.10;;;17.70;15.00;;;;;;5055312;28;20478;-67
2023/05/16 10:07:34;;;;;;;4.40;1.50;;;18.20;1.00;;;;;;5072835;28;20038;-66
2023/05/16 10:10:08;;;;;;;5.53;1.45;;;18.20;1.00;;;;;;5055883;28;20037;-67
2023/05/16 10:12:35;;;;;;;5.55;1.48;;;19.60;1.00;;;;;;5053803;28;20029;-67
2023/05/16 10:15:03;;;;;;;4.88;1.70;;;20.20;1.00;;;;;;5071279;28;20025;-67
2023/05/16 10:17:32;;;;;;;5.72;1.52;;;19.50;1.00;;;;;;5070791;28;20025;-67
2023/05/16 10:20:00;;;;;;;4.43;1.50;;;18.20;1.00;;;;;;5056673;28;20525;-67
2023/05/16 10:22:27;;;;;;;7.00;1.52;;;17.60;1.00;;;;;;5054934;28;20029;-67
2023/05/16 10:25:09;;;;;;;3.25;1.30;;;17.60;1.00;;;;;;5066724;28;20545;-67
2023/05/16 10:27:35;;;;;;;6.78;1.65;;;18.40;1.00;;;;;;5054529;28;20029;-67
2023/05/16 10:30:01;;;;;;;5.97;1.70;;;17.70;1.00;;;;;;5066420;28;20494;-66
2023/05/16 10:32:27;;;;;;;9.68;1.85;;;17.40;1.00;;;;;;5061839;28;20145;-67
2023/05/16 10:34:55;;;;;;;4.70;1.35;;;16.60;1.00;;;;;;5050312;28;20131;-67
2023/05/16 10:37:22;;;;;;;4.35;1.75;;;15.90;1.00;;;;;;5054167;28;20025;-67
2023/05/16 10:39:48;;;;;;;5.07;1.35;;;16.90;1.00;;;;;;5064744;28;20025;-67
2023/05/16 10:42:17;;;;;;;6.18;1.67;;;17.70;1.00;;;;;;5057124;28;20032;-67
2023/05/16 10:44:42;;;;;;;4.07;1.40;;;17.90;1.00;;;;;;5056655;28;20552;-67
2023/05/16 10:47:08;;;;;;;6.72;1.63;;;18.00;1.00;;;;;;5068668;28;20033;-67
2023/05/16 10:49:33;;;;;;;4.90;1.20;;;18.00;1.00;;;;;;5061799;28;20028;-67
2023/05/16 10:52:08;;;;;;;3.38;1.15;;;17.00;1.00;;;;;;5058172;28;20049;-67
2023/05/16 10:57:19;;;;;;;6.47;1.85;;;16.20;1.00;;;;;;5126312;27;20773;-66
2023/05/16 10:59:46;;;;;;;6.32;1.35;;;16.10;1.00;;;;;;5088161;28;20477;-66
2023/05/16 11:02:33;;;;;;;8.70;1.45;;;16.30;1.00;;;;;;5107437;28;20035;-66
2023/05/16 11:05:00;;;;;;;9.20;1.70;;;16.80;9.50;;;;;;5094722;28;20063;-66
2023/05/16 11:07:33;;;;;;;4.95;1.40;;;16.60;1.00;;;;;;5095106;28;20089;-66
2023/05/16 11:10:15;;;;;;;6.30;1.45;;;17.20;1.00;;;;;;5094493;28;20024;-66
2023/05/16 11:12:47;;;;;;;3.97;1.15;;;17.40;1.00;;;;;;5076807;28;20082;-66
2023/05/16 11:15:23;;;;;;;5.57;1.10;;;17.00;1.00;;;;;;5105388;28;20039;-66
2023/05/16 11:17:49;;;;;;;9.35;1.70;;;16.30;1.00;;;;;;5101023;28;20114;-67
2023/05/16 11:20:33;;;;;;;6.68;1.63;;;15.70;1.00;;;;;;5088368;28;20031;-66
2023/05/16 11:23:20;;;;;;;8.52;1.77;;;15.60;1.00;;;;;;5080171;28;20024;-67
2023/05/16 11:25:49;;;;;;;9.20;1.77;;;15.30;1.00;;;;;;5094648;28;20547;-67
2023/05/16 11:28:16;;;;;;;4.05;1.20;;;15.50;25.60;;;;;;5088140;28;20161;-67
2023/05/16 11:30:45;;;;;;;4.05;1.17;;;15.80;3.20;;;;;;5088674;28;20484;-67
2023/05/16 11:33:12;;;;;;;4.75;2.03;;;16.00;1.00;;;;;;5089902;28;20476;-67
2023/05/16 11:35:38;;;;;;;7.57;1.65;;;16.10;11.00;;;;;;5089209;28;20115;-68
2023/05/16 11:38:03;;;;;;;8.65;1.70;;;16.40;68.00;;;;;;5089617;28;20048;-67
2023/05/16 11:40:29;;;;;;;7.53;1.38;;;16.30;19.40;;;;;;5089270;28;20016;-67
2023/05/16 11:42:59;;;;;;;5.43;1.23;;;16.00;18.80;;;;;;5089429;28;20103;-68
2023/05/16 11:45:25;;;;;;;6.18;1.55;;;16.00;8.00;;;;;;5089800;28;20024;-68
2023/05/16 11:47:50;;;;;;;5.47;1.60;;;16.40;93.60;;;;;;5089812;28;20078;-68
2023/05/16 11:50:18;;;;;;;4.13;1.50;;;16.50;80.50;;;;;;5090287;28;20029;-68
2023/05/16 11:52:46;;;;;;;5.80;1.00;;;16.50;1.00;;;;;;5087671;28;20474;-68
2023/05/16 11:55:14;;;;;;;3.55;1.00;;;16.90;1.00;;;;;;5088716;28;20405;-68
2023/05/16 11:57:42;;;;;;;3.63;1.55;;;17.10;1.00;;;;;;5089526;28;20029;-68
2023/05/16 12:00:18;;;;;;;4.60;1.35;;;17.30;1.00;;;;;;5100576;28;20020;-68
2023/05/16 12:02:46;;;;;;;4.28;1.13;;;17.70;3.80;;;;;;5087610;28;20029;-69
2023/05/16 12:05:12;;;;;;;5.30;1.30;;;17.60;1.00;;;;;;5101045;28;20028;-68
2023/05/16 12:07:37;;;;;;;6.30;1.40;;;17.50;1.00;;;;;;5089346;28;21712;-68
2023/05/16 12:10:07;;;;;;;12.80;2.33;;;17.20;1.00;;;;;;5083134;28;20029;-67
2023/05/16 12:12:34;;;;;;;4.45;1.02;;;16.80;1.00;;;;;;5075795;28;20059;-67
2023/05/16 12:15:01;;;;;;;6.18;1.83;;;16.90;45.90;;;;;;5074150;28;20091;-69
2023/05/16 12:17:26;;;;;;;7.80;1.27;;;17.10;8.50;;;;;;5076055;28;20027;-67
2023/05/16 12:19:52;;;;;;;6.28;1.50;;;17.60;2.50;;;;;;5074071;28;20020;-67
2023/05/16 12:22:19;;;;;;;6.63;1.30;;;18.20;1.00;;;;;;5076034;28;20028;-67
2023/05/16 12:24:45;;;;;;;5.82;1.73;;;17.80;1.00;;;;;;5075283;28;20108;-67
2023/05/16 12:27:11;;;;;;;5.95;1.30;;;16.90;1.00;;;;;;5078848;28;20106;-67
2023/05/16 12:29:37;;;;;;;4.28;1.45;;;16.60;1.00;;;;;;5075072;28;20035;-67
2023/05/16 12:32:06;;;;;;;4.90;1.98;;;16.70;11.40;;;;;;5073119;28;20081;-67
2023/05/16 12:34:32;;;;;;;6.00;1.35;;;16.60;1.00;;;;;;5074093;28;20081;-66
2023/05/16 12:36:58;;;;;;;4.70;1.45;;;16.30;1.00;;;;;;5075702;28;20024;-66
2023/05/16 12:39:24;;;;;;;5.80;1.60;;;15.60;1.00;;;;;;5074457;28;20079;-66
2023/05/16 12:41:50;;;;;;;6.50;1.63;;;15.20;1.00;;;;;;5075155;28;20105;-66
2023/05/16 12:44:18;;;;;;;6.32;1.75;;;14.80;92.50;;;;;;5074211;28;20032;-66
2023/05/16 12:46:48;;;;;;;5.15;1.40;;;14.80;99.90;;;;;;5075862;28;20382;-66
2023/05/16 12:49:14;;;;;;;4.75;1.10;;;14.80;75.10;;;;;;5075633;28;20035;-66